createdAt,value
2024-04-15T00:02:24.161Z,1.70
2024-04-15T00:07:26.088Z,1.70
2024-04-15T00:12:28.000Z,1.67
2024-04-15T00:17:29.836Z,1.38
2024-04-15T00:22:31.663Z,1.65
2024-04-15T00:27:33.392Z,1.45
2024-04-15T00:32:35.164Z,1.83
2024-04-15T00:37:36.959Z,2.00
2024-04-15T00:42:38.802Z,1.80
2024-04-15T00:47:40.625Z,1.88
2024-04-15T00:52:42.413Z,2.00
2024-04-15T00:57:45.088Z,1.80
2024-04-15T01:02:48.108Z,1.98
2024-04-15T01:07:50.335Z,1.83
2024-04-15T01:12:52.737Z,1.60
2024-04-15T01:17:54.534Z,1.70
2024-04-15T01:23:02.448Z,2.10
2024-04-15T01:28:04.694Z,1.55
2024-04-15T01:33:06.991Z,1.80
2024-04-15T01:38:09.010Z,1.98
2024-04-15T01:43:11.129Z,1.70
2024-04-15T01:48:13.227Z,1.88
2024-04-15T01:53:15.276Z,1.75
2024-04-15T01:58:17.379Z,2.00
2024-04-15T02:03:19.484Z,2.13
2024-04-15T02:08:21.516Z,2.30
2024-04-15T02:13:23.651Z,2.47
2024-04-15T02:18:25.869Z,2.30
2024-04-15T02:23:28.068Z,3.25
2024-04-15T02:28:30.232Z,2.60
2024-04-15T02:33:32.529Z,2.83
2024-04-15T02:38:34.562Z,2.15
2024-04-15T02:43:36.400Z,2.50
2024-04-15T02:48:38.931Z,2.10
2024-04-15T02:53:40.908Z,2.05
2024-04-15T02:58:42.888Z,2.50
2024-04-15T03:03:46.744Z,2.45
2024-04-15T03:08:48.824Z,2.50
2024-04-15T03:13:51.105Z,2.28
2024-04-15T03:18:53.302Z,2.20
2024-04-15T03:23:55.428Z,2.20
2024-04-15T03:28:57.412Z,2.10
2024-04-15T03:33:59.403Z,2.30
2024-04-15T03:39:01.468Z,2.55
2024-04-15T03:44:03.704Z,2.20
2024-04-15T03:49:09.118Z,2.67
2024-04-15T03:54:11.001Z,2.42
2024-04-15T03:59:12.943Z,2.45
2024-04-15T04:04:16.793Z,2.53
2024-04-15T04:09:18.860Z,2.25
2024-04-15T04:14:20.837Z,2.10
2024-04-15T04:19:27.080Z,2.38
2024-04-15T04:24:30.870Z,2.10
2024-04-15T04:29:36.024Z,1.90
2024-04-15T04:34:38.031Z,2.45
2024-04-15T04:39:40.020Z,2.25
2024-04-15T04:44:42.009Z,2.33
2024-04-15T04:49:44.000Z,2.53
2024-04-15T04:54:46.403Z,2.47
2024-04-15T04:59:53.164Z,2.17
2024-04-15T05:04:55.415Z,2.35
2024-04-15T05:09:57.582Z,1.90
2024-04-15T05:14:59.666Z,2.05
2024-04-15T05:20:02.189Z,1.95
2024-04-15T05:25:04.578Z,1.90
2024-04-15T05:30:07.330Z,2.05
2024-04-15T05:35:10.342Z,1.60
2024-04-15T05:40:12.386Z,1.40
2024-04-15T05:45:14.552Z,1.85
2024-04-15T05:50:17.111Z,1.70
2024-04-15T05:55:19.616Z,1.67
2024-04-15T06:00:23.164Z,1.55
2024-04-15T06:05:26.749Z,1.48
2024-04-15T06:10:29.525Z,1.58
2024-04-15T06:15:38.866Z,1.75
2024-04-15T06:20:42.912Z,1.52
2024-04-15T06:25:51.243Z,2.05
2024-04-15T06:30:55.180Z,2.20
2024-04-15T06:35:57.628Z,1.92
2024-04-15T06:41:01.211Z,2.05
2024-04-15T06:46:03.083Z,2.25
2024-04-15T06:51:06.030Z,1.85
2024-04-15T06:56:09.547Z,2.00
2024-04-15T07:01:11.781Z,2.10
2024-04-15T07:06:14.019Z,2.13
2024-04-15T07:11:16.173Z,2.40
2024-04-15T07:16:18.721Z,2.30
2024-04-15T07:21:23.531Z,2.20
2024-04-15T07:26:26.019Z,1.98
2024-04-15T07:31:28.284Z,2.10
2024-04-15T07:36:30.858Z,2.45
2024-04-15T07:41:34.551Z,2.47
2024-04-15T07:46:36.555Z,2.35
2024-04-15T07:51:39.422Z,2.63
2024-04-15T07:56:41.888Z,2.38
2024-04-15T08:01:44.250Z,2.20
2024-04-15T08:06:53.913Z,2.10
2024-04-15T08:12:15.297Z,2.20
2024-04-15T08:17:21.188Z,2.30
2024-04-15T08:22:23.937Z,2.65
2024-04-15T08:27:25.739Z,2.17
2024-04-15T08:32:28.028Z,2.38
2024-04-15T08:37:30.162Z,2.35
2024-04-15T08:42:48.430Z,2.67
2024-04-15T08:52:57.156Z,2.45
2024-04-15T08:58:01.273Z,3.15
2024-04-15T09:03:04.025Z,2.60
2024-04-15T09:08:06.205Z,2.42
2024-04-15T09:13:11.224Z,2.72
2024-04-15T09:18:13.398Z,2.83
2024-04-15T09:23:16.390Z,2.95
2024-04-15T09:28:18.184Z,2.50
2024-04-15T09:33:23.057Z,2.70
2024-04-15T09:38:26.038Z,3.47
2024-04-15T09:43:29.587Z,3.53
2024-04-15T09:48:33.112Z,2.80
2024-04-15T09:53:43.104Z,2.85
2024-04-15T09:58:46.102Z,2.97
2024-04-15T10:03:52.914Z,3.10
2024-04-15T10:08:56.859Z,3.50
2024-04-15T10:13:58.965Z,3.40
2024-04-15T10:19:00.700Z,2.42
2024-04-15T10:24:05.882Z,3.38
2024-04-15T10:29:22.969Z,3.50
2024-04-15T10:34:26.876Z,3.63
2024-04-15T10:39:29.322Z,2.97
2024-04-15T10:44:31.379Z,3.05
2024-04-15T10:49:33.515Z,3.03
2024-04-15T10:54:37.431Z,3.17
2024-04-15T10:59:42.134Z,2.67
2024-04-15T11:04:44.144Z,3.50
2024-04-15T11:09:45.973Z,2.60
2024-04-15T11:14:54.532Z,2.58
2024-04-15T11:20:14.769Z,2.67
2024-04-15T11:25:53.933Z,2.60
2024-04-15T11:31:17.847Z,2.58
2024-04-15T11:36:33.972Z,2.33
2024-04-15T11:41:46.910Z,2.20
2024-04-15T11:46:57.800Z,2.35
2024-04-15T11:52:14.170Z,2.17
2024-04-15T11:57:29.400Z,2.50
2024-04-15T12:02:52.274Z,2.53
2024-04-15T12:08:01.417Z,2.35
2024-04-15T12:13:12.360Z,2.38
2024-04-15T12:18:25.517Z,2.60
2024-04-15T12:23:31.989Z,2.95
2024-04-15T12:28:34.054Z,2.75
2024-04-15T12:33:37.518Z,2.78
2024-04-15T12:38:39.916Z,3.30
2024-04-15T12:43:42.585Z,2.67
2024-04-15T12:48:44.971Z,2.42
2024-04-15T12:53:47.870Z,3.25
2024-04-15T12:58:50.193Z,2.90
2024-04-15T13:03:52.844Z,2.65
2024-04-15T13:08:55.096Z,2.33
2024-04-15T13:13:57.760Z,2.47
2024-04-15T13:19:01.668Z,1.90
2024-04-15T13:24:03.817Z,2.13
2024-04-15T13:29:07.074Z,2.08
2024-04-15T13:34:09.734Z,2.10
2024-04-15T13:39:12.129Z,2.00
2024-04-15T13:44:14.975Z,2.63
2024-04-15T13:49:22.112Z,2.47
2024-04-15T13:54:27.289Z,2.55
2024-04-15T13:59:31.132Z,2.90
2024-04-15T14:04:33.799Z,2.58
2024-04-15T14:09:35.927Z,2.35
2024-04-15T14:14:39.056Z,2.63
2024-04-15T14:19:41.856Z,1.90
2024-04-15T14:24:43.857Z,2.10
2024-04-15T14:29:46.850Z,6.15
2024-04-15T14:34:52.916Z,3.95
2024-04-15T14:40:07.512Z,3.65
2024-04-15T14:45:15.036Z,2.38
2024-04-15T14:50:17.055Z,1.90
2024-04-15T14:55:19.433Z,1.92
2024-04-15T15:00:22.346Z,2.20
2024-04-15T15:05:24.722Z,1.92
2024-04-15T15:10:27.685Z,2.00
2024-04-15T15:15:30.535Z,1.90
2024-04-15T15:20:33.022Z,1.92
2024-04-15T15:25:35.603Z,3.35
2024-04-15T15:30:37.862Z,2.10
2024-04-15T15:35:40.246Z,2.25
2024-04-15T15:40:42.303Z,2.00
2024-04-15T15:45:47.537Z,1.90
2024-04-15T15:50:50.744Z,2.15
2024-04-15T15:55:52.820Z,4.18
2024-04-15T16:00:55.345Z,2.40
2024-04-15T16:05:58.393Z,2.70
2024-04-15T16:11:01.174Z,2.58
2024-04-15T16:16:04.649Z,6.47
2024-04-15T16:21:07.601Z,3.40
2024-04-15T16:26:10.041Z,5.47
2024-04-15T16:31:16.260Z,3.65
2024-04-15T16:36:18.224Z,3.45
2024-04-15T16:41:20.005Z,3.40
2024-04-15T16:46:24.170Z,4.68
2024-04-15T16:51:26.631Z,9.50
2024-04-15T16:56:28.896Z,8.43
2024-04-15T17:01:30.863Z,9.35
2024-04-15T17:06:33.282Z,7.57
2024-04-15T17:11:35.865Z,3.83
2024-04-15T17:16:37.866Z,2.72
2024-04-15T17:21:40.144Z,4.50
2024-04-15T17:26:42.947Z,2.47
2024-04-15T17:31:44.991Z,2.15
2024-04-15T17:36:47.224Z,2.95
2024-04-15T17:41:49.079Z,2.80
2024-04-15T17:46:52.131Z,1.25
2024-04-15T17:51:54.229Z,1.88
2024-04-15T17:56:56.666Z,1.27
2024-04-15T18:01:58.515Z,1.33
2024-04-15T18:07:00.582Z,1.50
2024-04-15T18:12:05.342Z,1.40
2024-04-15T18:17:09.786Z,1.45
2024-04-15T18:22:12.047Z,1.42
2024-04-15T18:27:14.264Z,1.45
2024-04-15T18:32:16.169Z,1.50
2024-04-15T18:37:19.934Z,1.58
2024-04-15T18:42:22.089Z,1.42
2024-04-15T18:47:24.376Z,1.50
2024-04-15T18:52:26.270Z,1.25
2024-04-15T18:57:28.138Z,1.30
2024-04-15T19:02:31.147Z,1.63
2024-04-15T19:07:33.146Z,1.35
2024-04-15T19:12:35.079Z,1.20
2024-04-15T19:17:37.759Z,1.23
2024-04-15T19:22:39.842Z,1.10
2024-04-15T19:27:41.963Z,1.10
2024-04-15T19:32:43.884Z,0.98
2024-04-15T19:37:45.829Z,1.00
2024-04-15T19:42:47.656Z,0.60
2024-04-15T19:47:53.559Z,0.50
2024-04-15T19:52:55.388Z,0.80
2024-04-15T19:57:57.069Z,0.73
2024-04-15T20:02:58.938Z,0.70
2024-04-15T20:08:09.034Z,1.17
2024-04-15T20:13:15.108Z,1.00
2024-04-15T20:18:34.510Z,0.70
2024-04-15T20:23:37.944Z,1.13
2024-04-15T20:28:39.891Z,0.90
2024-04-15T20:33:42.112Z,1.00
2024-04-15T20:38:45.040Z,0.40
2024-04-15T20:43:47.339Z,0.63
2024-04-15T20:48:49.505Z,0.45
2024-04-15T20:53:51.284Z,0.35
2024-04-15T20:58:53.333Z,0.20
2024-04-15T21:03:55.582Z,0.20
2024-04-15T21:08:58.001Z,0.10
2024-04-15T21:14:00.653Z,0.10
2024-04-15T21:19:02.517Z,0.10
2024-04-15T21:24:04.919Z,0.10
2024-04-15T21:29:07.294Z,0.10
2024-04-15T21:34:09.623Z,0.15
2024-04-15T21:39:11.993Z,0.10
2024-04-15T21:44:14.168Z,0.22
2024-04-15T21:49:17.073Z,0.10
2024-04-15T21:54:19.851Z,0.08
2024-04-15T21:59:21.736Z,0.00
2024-04-15T22:04:23.677Z,0.10
2024-04-15T22:09:25.815Z,0.10
2024-04-15T22:14:29.685Z,0.20
2024-04-15T22:19:32.485Z,0.17
2024-04-15T22:24:34.835Z,0.10
2024-04-15T22:29:36.763Z,0.50
2024-04-15T22:34:38.964Z,0.10
2024-04-15T22:39:41.137Z,0.10
2024-04-15T22:44:42.938Z,0.10
2024-04-15T22:49:44.915Z,0.20
2024-04-15T22:54:46.978Z,0.20
2024-04-15T22:59:48.950Z,0.32
2024-04-15T23:04:50.720Z,0.20
2024-04-15T23:09:52.970Z,0.40
2024-04-15T23:14:54.745Z,0.52
2024-04-15T23:19:56.833Z,0.20
2024-04-15T23:24:58.548Z,0.52
2024-04-15T23:30:00.308Z,0.30
2024-04-15T23:35:02.071Z,0.28
2024-04-15T23:40:04.100Z,0.55
2024-04-15T23:45:06.459Z,0.50
2024-04-15T23:50:27.414Z,0.50
2024-04-15T23:55:47.614Z,0.60
